KMHK/MHK METAR and TAF weather

Enter ICAO airport designator
Station Type Date Time Source
KMHK METAR 2019/02/17 14:52 UTC NOAA

KMHK 171452Z 27010KT 10SM CLR M07/M10 A2993 RMK AO2 SLP149 T10721100 53027


Station Type Date Time Source
KMHK Decoded METAR 2019/02/17 14:52 UTC NOAA

MANHATTAN REGIONAL AIRPORT, KS, United States (KMHK) 39-08N 96-41W 317M
Feb 17, 2019 - 09:52 AM EST / 2019.02.17 1452 UTC
Wind: from the W (270 degrees) at 12 MPH (10 KT):0
Visibility: 10 mile(s):0
Sky conditions: clear
Temperature: 19.0 F (-7.2 C)
Windchill: 6 F (-14 C):1
Dew Point: 14.0 F (-10.0 C)
Relative Humidity: 80%
Pressure (altimeter): 29.93 in. Hg (1013 hPa)
Pressure tendency: 0.08 inches (2.7 hPa) higher than three hours ago
ob: KMHK 171452Z 27010KT 10SM CLR M07/M10 A2993 RMK AO2 SLP149 T10721100 53027
cycle: 15

Station Type Date Time Source
KMHK TAF 2019/02/17 14:46 UTC NOAA

TAF
AMD KMHK 171344Z 1714/1812 30009KT P6SM SCT025
FM171700 31012G21KT P6SM BKN035
FM180100 32009KT P6SM FEW040


Example: see airport list